createdAt,value
2018-03-17T00:00:05.569Z,99002.46
2018-03-17T00:02:32.962Z,99004.98
2018-03-17T00:05:00.475Z,99001.03
2018-03-17T00:07:27.858Z,99004.23
2018-03-17T00:09:55.281Z,99004.20
2018-03-17T00:12:22.665Z,98993.59
2018-03-17T00:14:50.096Z,98998.25
2018-03-17T00:17:17.467Z,98997.36
2018-03-17T00:19:44.877Z,98987.14
2018-03-17T00:22:12.962Z,98992.90
2018-03-17T00:24:40.356Z,98997.14
2018-03-17T00:27:07.740Z,99002.48
2018-03-17T00:29:35.158Z,99003.75
2018-03-17T00:32:02.542Z,99006.80
2018-03-17T00:34:29.945Z,99005.67
2018-03-17T00:36:57.397Z,99014.45
2018-03-17T00:39:24.789Z,99016.75
2018-03-17T00:41:52.173Z,99021.20
2018-03-17T00:44:19.581Z,99013.28
2018-03-17T00:46:47.024Z,99016.63
2018-03-17T00:49:14.423Z,99007.94
2018-03-17T00:51:42.889Z,99010.69
2018-03-17T00:54:10.361Z,99020.27
2018-03-17T00:56:37.764Z,99019.34
2018-03-17T00:59:05.267Z,99015.41
2018-03-17T01:01:32.673Z,99019.55
2018-03-17T01:04:00.155Z,99020.56
2018-03-17T01:06:27.500Z,99013.83
2018-03-17T01:08:54.952Z,99017.38
2018-03-17T01:11:22.350Z,99013.45
2018-03-17T01:13:49.734Z,99015.60
2018-03-17T01:16:17.136Z,99018.34
2018-03-17T01:18:44.525Z,99019.64
2018-03-17T01:21:12.990Z,99017.77
2018-03-17T01:23:40.372Z,99013.88
2018-03-17T01:26:07.821Z,99015.75
2018-03-17T01:28:35.224Z,99011.14
2018-03-17T01:31:02.616Z,99013.08
2018-03-17T01:33:30.001Z,99015.79
2018-03-17T01:35:57.401Z,99021.22
2018-03-17T01:38:24.778Z,99024.41
2018-03-17T01:40:52.165Z,99019.95
2018-03-17T01:43:19.553Z,99010.64
2018-03-17T01:45:46.944Z,99019.48
2018-03-17T01:48:14.469Z,99010.89
2018-03-17T01:50:42.022Z,99007.25
2018-03-17T01:53:09.614Z,99008.82
2018-03-17T01:55:36.996Z,99005.67
2018-03-17T01:58:04.497Z,99000.33
2018-03-17T02:00:31.913Z,98995.83
2018-03-17T02:02:59.311Z,98995.92
2018-03-17T02:05:26.698Z,98992.91
2018-03-17T02:07:54.101Z,98988.55
2018-03-17T02:10:21.529Z,98989.81
2018-03-17T02:12:48.920Z,98984.41
2018-03-17T02:15:16.368Z,98986.59
2018-03-17T02:17:43.814Z,98983.16
2018-03-17T02:20:11.231Z,98988.73
2018-03-17T02:22:38.710Z,98973.22
2018-03-17T02:25:06.118Z,98970.00
2018-03-17T02:27:33.535Z,98970.84
2018-03-17T02:30:00.979Z,98970.38
2018-03-17T02:32:28.412Z,98966.57
2018-03-17T02:34:55.819Z,98954.39
2018-03-17T02:37:23.363Z,98954.20
2018-03-17T02:39:50.814Z,98955.44
2018-03-17T02:42:18.208Z,98950.66
2018-03-17T02:44:45.613Z,98947.69
2018-03-17T02:47:13.408Z,98948.31
2018-03-17T02:49:40.832Z,98960.33
2018-03-17T02:52:08.341Z,98958.72
2018-03-17T02:54:35.847Z,98955.27
2018-03-17T02:57:05.997Z,98954.84
2018-03-17T02:59:35.762Z,98958.94
2018-03-17T03:02:03.210Z,98952.22
2018-03-17T03:04:30.613Z,98948.72
2018-03-17T03:06:58.022Z,98949.36
2018-03-17T03:09:25.429Z,98953.48
2018-03-17T03:11:52.851Z,98953.39
2018-03-17T03:14:20.253Z,98948.95
2018-03-17T03:16:49.878Z,98950.72
2018-03-17T03:19:17.825Z,98954.39
2018-03-17T03:21:45.221Z,98939.42
2018-03-17T03:24:13.530Z,98942.77
2018-03-17T03:26:41.007Z,98952.55
2018-03-17T03:29:08.408Z,98952.11
2018-03-17T03:31:35.792Z,98942.89
2018-03-17T03:34:03.221Z,98940.20
2018-03-17T03:36:30.634Z,98932.91
2018-03-17T03:38:58.249Z,98936.98
2018-03-17T03:41:25.685Z,98941.00
2018-03-17T03:43:53.085Z,98939.79
2018-03-17T03:46:20.468Z,98942.77
2018-03-17T03:48:47.868Z,98943.36
2018-03-17T03:51:17.854Z,98939.36
2018-03-17T03:53:45.343Z,98943.70
2018-03-17T03:56:13.710Z,98946.45
2018-03-17T03:58:41.101Z,98945.42
2018-03-17T04:01:08.485Z,98947.45
2018-03-17T04:03:36.966Z,98953.22
2018-03-17T04:06:04.396Z,98945.50
2018-03-17T04:08:31.801Z,98940.70
2018-03-17T04:10:59.188Z,98939.09
2018-03-17T04:13:26.596Z,98936.63
2018-03-17T04:15:53.972Z,98936.16
2018-03-17T04:18:21.416Z,98933.34
2018-03-17T04:20:48.803Z,98930.02
2018-03-17T04:23:16.193Z,98936.67
2018-03-17T04:25:45.226Z,98942.52
2018-03-17T04:28:12.629Z,98941.32
2018-03-17T04:30:40.024Z,98940.58
2018-03-17T04:33:08.344Z,98942.89
2018-03-17T04:35:35.761Z,98935.69
2018-03-17T04:38:03.173Z,98940.20
2018-03-17T04:40:30.571Z,98942.73
2018-03-17T04:42:57.966Z,98941.69
2018-03-17T04:45:25.364Z,98937.39
2018-03-17T04:47:52.889Z,98936.88
2018-03-17T04:50:20.333Z,98945.06
2018-03-17T04:52:47.708Z,98939.03
2018-03-17T04:55:18.452Z,98940.34
2018-03-17T04:57:45.849Z,98936.61
2018-03-17T05:00:13.237Z,98936.30
2018-03-17T05:02:40.734Z,98943.59
2018-03-17T05:05:08.131Z,98935.55
2018-03-17T05:07:35.590Z,98928.07
2018-03-17T05:10:02.981Z,98932.34
2018-03-17T05:12:30.389Z,98920.25
2018-03-17T05:14:57.804Z,98926.13
2018-03-17T05:17:25.241Z,98924.00
2018-03-17T05:19:52.638Z,98919.47
2018-03-17T05:22:20.053Z,98928.00
2018-03-17T05:24:47.437Z,98928.94
2018-03-17T05:27:15.647Z,98930.84
2018-03-17T05:29:43.024Z,98930.72
2018-03-17T05:32:10.421Z,98931.83
2018-03-17T05:34:37.830Z,98927.52
2018-03-17T05:37:05.227Z,98933.59
2018-03-17T05:39:32.713Z,98932.68
2018-03-17T05:42:00.240Z,98924.80
2018-03-17T05:44:27.669Z,98929.14
2018-03-17T05:46:55.084Z,98925.02
2018-03-17T05:49:22.469Z,98917.09
2018-03-17T05:51:49.865Z,98911.67
2018-03-17T05:54:17.261Z,98913.31
2018-03-17T05:56:44.737Z,98906.70
2018-03-17T05:59:12.128Z,98906.98
2018-03-17T06:01:39.521Z,98904.57
2018-03-17T06:04:06.912Z,98902.56
2018-03-17T06:06:35.338Z,98892.00
2018-03-17T06:09:02.984Z,98886.34
2018-03-17T06:11:30.376Z,98887.47
2018-03-17T06:13:57.786Z,98886.48
2018-03-17T06:16:25.168Z,98889.95
2018-03-17T06:18:52.567Z,98889.94
2018-03-17T06:21:19.960Z,98892.30
2018-03-17T06:23:47.347Z,98890.37
2018-03-17T06:26:14.724Z,98900.19
2018-03-17T06:28:42.152Z,98894.13
2018-03-17T06:31:09.538Z,98891.66
2018-03-17T06:33:36.921Z,98895.81
2018-03-17T06:36:04.327Z,98897.03
2018-03-17T06:38:31.720Z,98893.48
2018-03-17T06:40:59.149Z,98893.38
2018-03-17T06:43:26.544Z,98891.80
2018-03-17T06:45:53.950Z,98897.54
2018-03-17T06:48:21.331Z,98891.79
2018-03-17T06:50:48.765Z,98904.84
2018-03-17T06:53:16.177Z,98904.47
2018-03-17T06:55:45.189Z,98899.91
2018-03-17T06:58:12.576Z,98903.30
2018-03-17T07:00:39.979Z,98903.30
2018-03-17T07:03:07.405Z,98899.84
2018-03-17T07:05:34.793Z,98895.81
2018-03-17T07:08:02.176Z,98902.10
2018-03-17T07:10:30.573Z,98899.23
2018-03-17T07:12:57.966Z,98901.97
2018-03-17T07:15:25.347Z,98900.92
2018-03-17T07:17:53.708Z,98901.55
2018-03-17T07:20:21.423Z,98904.25
2018-03-17T07:22:48.841Z,98906.77
2018-03-17T07:25:16.259Z,98905.53
2018-03-17T07:27:43.626Z,98902.55
2018-03-17T07:30:11.007Z,98900.50
2018-03-17T07:32:38.481Z,98897.30
2018-03-17T07:35:05.872Z,98902.81
2018-03-17T07:37:33.256Z,98902.48
2018-03-17T07:40:00.641Z,98891.21
2018-03-17T07:42:28.050Z,98894.29
2018-03-17T07:44:55.422Z,98898.88
2018-03-17T07:47:22.809Z,98897.03
2018-03-17T07:49:50.232Z,98889.54
2018-03-17T07:52:17.617Z,98888.26
2018-03-17T07:54:44.997Z,98890.44
2018-03-17T07:57:12.419Z,98890.99
2018-03-17T07:59:39.794Z,98888.20
2018-03-17T08:02:07.192Z,98891.95
2018-03-17T08:04:34.582Z,98903.81
2018-03-17T08:07:01.983Z,98888.31
2018-03-17T08:09:29.382Z,98889.21
2018-03-17T08:11:56.805Z,98891.81
2018-03-17T08:14:24.259Z,98893.55
2018-03-17T08:16:51.577Z,98883.80
2018-03-17T08:19:19.322Z,98885.74
2018-03-17T08:21:46.726Z,98885.61
2018-03-17T08:24:19.169Z,98894.92
2018-03-17T08:26:46.568Z,98896.73
2018-03-17T08:29:13.977Z,98894.66
2018-03-17T08:31:41.373Z,98883.58
2018-03-17T08:34:08.796Z,98890.50
2018-03-17T08:36:36.141Z,98884.01
2018-03-17T08:39:03.541Z,98886.69
2018-03-17T08:41:30.938Z,98879.87
2018-03-17T08:43:58.340Z,98884.41
2018-03-17T08:46:25.750Z,98878.27
2018-03-17T08:48:53.145Z,98892.23
2018-03-17T08:51:20.528Z,98887.77
2018-03-17T08:53:47.960Z,98884.27
2018-03-17T08:56:15.341Z,98884.57
2018-03-17T08:58:42.777Z,98878.44
2018-03-17T09:01:10.103Z,98875.22
2018-03-17T09:03:37.509Z,98878.75
2018-03-17T09:06:04.916Z,98879.72
2018-03-17T09:08:32.398Z,98880.30
2018-03-17T09:11:00.163Z,98882.14
2018-03-17T09:13:27.541Z,98877.09
2018-03-17T09:15:54.989Z,98869.95
2018-03-17T09:18:22.491Z,98874.33
2018-03-17T09:20:49.974Z,98872.02
2018-03-17T09:23:17.364Z,98874.59
2018-03-17T09:25:45.388Z,98870.75
2018-03-17T09:28:12.794Z,98871.55
2018-03-17T09:30:40.168Z,98869.11
2018-03-17T09:33:07.555Z,98866.48
2018-03-17T09:35:34.957Z,98872.77
2018-03-17T09:38:02.363Z,98869.84
2018-03-17T09:40:29.768Z,98877.42
2018-03-17T09:42:57.177Z,98870.00
2018-03-17T09:45:24.559Z,98871.55
2018-03-17T09:47:52.048Z,98869.08
2018-03-17T09:50:19.465Z,98868.39
2018-03-17T09:52:46.865Z,98864.85
2018-03-17T09:55:14.247Z,98867.00
2018-03-17T09:57:41.681Z,98865.14
2018-03-17T10:00:09.082Z,98861.57
2018-03-17T10:02:36.476Z,98865.55
2018-03-17T10:05:03.864Z,98864.55
2018-03-17T10:07:31.257Z,98858.08
2018-03-17T10:09:58.649Z,98860.34
2018-03-17T10:12:26.063Z,98860.81
2018-03-17T10:14:53.452Z,98858.23
2018-03-17T10:17:20.841Z,98860.33
2018-03-17T10:19:48.237Z,98869.34
2018-03-17T10:22:15.703Z,98870.88
2018-03-17T10:24:43.097Z,98869.45
2018-03-17T10:27:10.472Z,98875.23
2018-03-17T10:29:37.877Z,98875.00
2018-03-17T10:32:05.280Z,98869.52
2018-03-17T10:34:32.694Z,98875.59
2018-03-17T10:37:00.073Z,98876.00
2018-03-17T10:39:27.482Z,98873.05
2018-03-17T10:41:54.872Z,98871.12
2018-03-17T10:44:22.281Z,98861.19
2018-03-17T10:46:49.670Z,98854.55
2018-03-17T10:49:17.132Z,98857.48
2018-03-17T10:51:44.454Z,98851.49
2018-03-17T10:54:11.837Z,98859.17
2018-03-17T10:56:39.245Z,98857.89
2018-03-17T10:59:07.511Z,98845.97
2018-03-17T11:01:40.563Z,98846.53
2018-03-17T11:04:08.164Z,98851.52
2018-03-17T11:06:35.629Z,98857.33
2018-03-17T11:09:03.026Z,98851.26
2018-03-17T11:11:30.436Z,98847.95
2018-03-17T11:13:57.826Z,98844.88
2018-03-17T11:16:25.289Z,98842.48
2018-03-17T11:18:52.670Z,98844.38
2018-03-17T11:21:20.234Z,98840.99
2018-03-17T11:23:47.624Z,98842.25
2018-03-17T11:26:15.003Z,98843.83
2018-03-17T11:28:42.397Z,98846.39
2018-03-17T11:31:09.914Z,98849.74
2018-03-17T11:33:37.309Z,98844.59
2018-03-17T11:36:04.712Z,98857.70
2018-03-17T11:38:32.184Z,98850.23
2018-03-17T11:40:59.550Z,98843.01
2018-03-17T11:43:26.943Z,98843.25
2018-03-17T11:45:54.398Z,98848.14
2018-03-17T11:48:22.108Z,98853.19
2018-03-17T11:50:49.571Z,98841.64
2018-03-17T11:53:16.953Z,98841.86
2018-03-17T11:55:44.335Z,98839.56
2018-03-17T11:58:11.761Z,98838.47
2018-03-17T12:00:39.161Z,98837.22
2018-03-17T12:03:06.644Z,98832.77
2018-03-17T12:05:35.020Z,98841.44
2018-03-17T12:08:02.422Z,98834.56
2018-03-17T12:10:29.823Z,98831.90
2018-03-17T12:12:57.207Z,98832.31
2018-03-17T12:15:24.663Z,98830.47
2018-03-17T12:17:52.106Z,98828.13
2018-03-17T12:20:19.498Z,98838.96
2018-03-17T12:22:47.010Z,98824.97
2018-03-17T12:25:14.409Z,98831.00
2018-03-17T12:27:41.849Z,98822.89
2018-03-17T12:30:09.328Z,98820.22
2018-03-17T12:32:36.712Z,98816.62
2018-03-17T12:35:04.128Z,98813.56
2018-03-17T12:37:31.523Z,98816.02
2018-03-17T12:39:58.905Z,98814.22
2018-03-17T12:42:26.339Z,98821.23
2018-03-17T12:44:53.824Z,98817.94
2018-03-17T12:47:21.214Z,98819.03
2018-03-17T12:49:52.197Z,98817.05
2018-03-17T12:52:19.581Z,98809.90
2018-03-17T12:54:47.216Z,98811.14
2018-03-17T12:57:14.619Z,98814.88
2018-03-17T12:59:42.139Z,98806.31
2018-03-17T13:02:09.534Z,98815.08
2018-03-17T13:04:36.953Z,98809.80
2018-03-17T13:07:04.358Z,98813.41
2018-03-17T13:09:31.761Z,98819.83
2018-03-17T13:11:59.141Z,98816.92
2018-03-17T13:14:26.613Z,98815.58
2018-03-17T13:16:54.005Z,98817.43
2018-03-17T13:19:30.191Z,98819.31
2018-03-17T13:21:57.580Z,98799.38
2018-03-17T13:24:25.001Z,98808.20
2018-03-17T13:27:04.181Z,98809.63
2018-03-17T13:29:31.601Z,98817.05
2018-03-17T13:32:04.438Z,98814.23
2018-03-17T13:34:40.157Z,98810.47
2018-03-17T13:37:19.799Z,98807.75
2018-03-17T13:39:47.214Z,98817.30
2018-03-17T13:42:14.627Z,98811.81
2018-03-17T13:44:42.162Z,98809.08
2018-03-17T13:47:09.600Z,98813.28
2018-03-17T13:49:36.978Z,98814.04
2018-03-17T13:52:04.383Z,98818.58
2018-03-17T13:54:31.810Z,98822.09
2018-03-17T13:56:59.274Z,98819.13
2018-03-17T13:59:26.666Z,98827.86
2018-03-17T14:01:54.078Z,98828.64
2018-03-17T14:04:21.498Z,98824.81
2018-03-17T14:06:48.897Z,98821.55
2018-03-17T14:09:16.852Z,98822.87
2018-03-17T14:11:44.276Z,98822.16
2018-03-17T14:14:11.659Z,98821.33
2018-03-17T14:16:39.065Z,98816.58
2018-03-17T14:19:06.513Z,98830.81
2018-03-17T14:21:33.969Z,98821.81
2018-03-17T14:24:01.344Z,98827.28
2018-03-17T14:26:28.749Z,98825.33
2018-03-17T14:28:56.142Z,98826.46
2018-03-17T14:31:23.570Z,98829.95
2018-03-17T14:33:51.206Z,98832.83
2018-03-17T14:36:18.657Z,98830.63
2018-03-17T14:38:47.000Z,98833.59
2018-03-17T14:41:14.518Z,98839.22
2018-03-17T14:43:41.906Z,98829.80
2018-03-17T14:46:09.439Z,98833.11
2018-03-17T14:48:36.861Z,98834.45
2018-03-17T14:51:04.245Z,98829.86
2018-03-17T14:53:31.647Z,98829.11
2018-03-17T14:55:59.045Z,98824.63
2018-03-17T14:58:26.553Z,98821.38
2018-03-17T15:00:53.940Z,98817.95
2018-03-17T15:03:21.326Z,98818.73
2018-03-17T15:05:48.755Z,98817.34
2018-03-17T15:08:16.135Z,98825.72
2018-03-17T15:10:43.513Z,98832.16
2018-03-17T15:13:10.926Z,98834.87
2018-03-17T15:15:38.324Z,98840.86
2018-03-17T15:18:05.788Z,98838.23
2018-03-17T15:20:33.208Z,98851.94
2018-03-17T15:23:00.650Z,98857.29
2018-03-17T15:25:28.053Z,98847.01
2018-03-17T15:27:55.555Z,98849.75
2018-03-17T15:30:22.940Z,98845.25
2018-03-17T15:32:50.352Z,98844.80
2018-03-17T15:35:17.954Z,98849.31
2018-03-17T15:37:46.336Z,98847.12
2018-03-17T15:40:13.745Z,98850.71
2018-03-17T15:42:41.120Z,98846.91
2018-03-17T15:45:08.640Z,98854.38
2018-03-17T15:47:36.032Z,98844.59
2018-03-17T15:50:03.540Z,98842.48
2018-03-17T15:52:30.926Z,98847.41
2018-03-17T15:54:58.299Z,98840.70
2018-03-17T15:57:25.844Z,98834.95
2018-03-17T15:59:53.222Z,98842.87
2018-03-17T16:02:20.635Z,98843.26
2018-03-17T16:04:48.133Z,98849.05
2018-03-17T16:07:15.538Z,98837.95
2018-03-17T16:09:42.923Z,98842.47
2018-03-17T16:14:44.102Z,98848.34
2018-03-17T16:17:11.609Z,98852.69
2018-03-17T16:19:38.980Z,98846.91
2018-03-17T16:22:06.372Z,98845.99
2018-03-17T16:24:33.756Z,98843.14
2018-03-17T16:27:01.214Z,98846.73
2018-03-17T16:29:28.618Z,98850.66
2018-03-17T16:31:56.097Z,98852.02
2018-03-17T16:34:23.510Z,98856.80
2018-03-17T16:36:50.903Z,98857.83
2018-03-17T16:39:18.319Z,98859.23
2018-03-17T16:41:45.689Z,98866.34
2018-03-17T16:44:13.075Z,98860.16
2018-03-17T16:46:40.448Z,98858.55
2018-03-17T16:49:07.924Z,98865.62
2018-03-17T16:51:35.394Z,98858.89
2018-03-17T16:54:02.803Z,98873.78
2018-03-17T16:56:30.212Z,98864.45
2018-03-17T16:58:57.606Z,98861.52
2018-03-17T17:01:25.009Z,98870.50
2018-03-17T17:03:52.502Z,98871.33
2018-03-17T17:06:19.976Z,98866.55
2018-03-17T17:08:47.633Z,98866.44
2018-03-17T17:11:15.049Z,98867.09
2018-03-17T17:13:42.442Z,98874.33
2018-03-17T17:16:09.824Z,98870.88
2018-03-17T17:18:37.663Z,98867.36
2018-03-17T17:21:05.163Z,98863.81
2018-03-17T17:23:32.553Z,98861.72
2018-03-17T17:25:59.946Z,98865.50
2018-03-17T17:28:27.470Z,98871.70
2018-03-17T17:30:55.886Z,98876.70
2018-03-17T17:33:23.269Z,98899.84
2018-03-17T17:35:50.652Z,98891.63
2018-03-17T17:38:18.041Z,98885.75
2018-03-17T17:40:45.520Z,98886.69
2018-03-17T17:43:12.913Z,98885.04
2018-03-17T17:45:40.297Z,98895.56
2018-03-17T17:48:07.684Z,98893.13
2018-03-17T17:50:35.088Z,98888.13
2018-03-17T17:55:52.370Z,98898.49
2018-03-17T17:58:20.013Z,98895.15
2018-03-17T18:00:47.793Z,98898.81
2018-03-17T18:03:15.226Z,98906.68
2018-03-17T18:05:42.655Z,98908.28
2018-03-17T18:08:10.075Z,98909.73
2018-03-17T18:10:37.456Z,98912.89
2018-03-17T18:13:04.879Z,98915.52
2018-03-17T18:15:32.254Z,98919.41
2018-03-17T18:17:59.662Z,98914.62
2018-03-17T18:20:27.064Z,98924.63
2018-03-17T18:22:54.479Z,98924.19
2018-03-17T18:25:21.864Z,98922.36
2018-03-17T18:27:49.286Z,98927.34
2018-03-17T18:30:16.709Z,98922.83
2018-03-17T18:32:44.206Z,98938.17
2018-03-17T18:35:11.613Z,98936.85
2018-03-17T18:37:39.045Z,98928.80
2018-03-17T18:40:06.449Z,98940.42
2018-03-17T18:42:33.855Z,98939.13
2018-03-17T18:45:01.337Z,98940.84
2018-03-17T18:47:29.500Z,98940.80
2018-03-17T18:49:56.940Z,98936.75
2018-03-17T18:52:24.327Z,98943.13
2018-03-17T18:54:51.714Z,98941.45
2018-03-17T18:57:19.136Z,98952.25
2018-03-17T18:59:46.524Z,98947.42
2018-03-17T19:02:13.915Z,98948.52
2018-03-17T19:04:41.305Z,98943.20
2018-03-17T19:07:08.879Z,98955.08
2018-03-17T19:09:36.328Z,98951.61
2018-03-17T19:12:03.700Z,98954.86
2018-03-17T19:14:31.309Z,98961.77
2018-03-17T19:16:58.727Z,98958.06
2018-03-17T19:19:26.131Z,98957.28
2018-03-17T19:21:53.523Z,98956.63
2018-03-17T19:24:21.022Z,98965.59
2018-03-17T19:26:48.736Z,98974.17
2018-03-17T19:29:16.099Z,98971.14
2018-03-17T19:31:43.485Z,98971.72
2018-03-17T19:34:10.874Z,98976.53
2018-03-17T19:36:38.278Z,98978.49
2018-03-17T19:39:05.660Z,98981.81
2018-03-17T19:41:33.056Z,98975.06
2018-03-17T19:44:00.450Z,98984.13
2018-03-17T19:46:27.977Z,98984.39
2018-03-17T19:48:55.348Z,98982.82
2018-03-17T19:51:22.785Z,98980.86
2018-03-17T19:53:50.183Z,98983.71
2018-03-17T19:56:18.359Z,98988.89
2018-03-17T19:58:45.723Z,98989.23
2018-03-17T20:01:13.132Z,98993.83
2018-03-17T20:03:40.518Z,98999.50
2018-03-17T20:06:07.951Z,98992.08
2018-03-17T20:08:35.336Z,98989.77
2018-03-17T20:11:02.740Z,98988.46
2018-03-17T20:13:30.161Z,98990.16
2018-03-17T20:15:57.547Z,98990.05
2018-03-17T20:18:24.946Z,98998.67
2018-03-17T20:20:52.342Z,98996.01
2018-03-17T20:23:19.740Z,98999.08
2018-03-17T20:25:47.289Z,98990.92
2018-03-17T20:28:14.698Z,99001.47
2018-03-17T20:30:42.099Z,98997.27
2018-03-17T20:33:09.497Z,98999.41
2018-03-17T20:35:36.868Z,99001.50
2018-03-17T20:38:04.272Z,99008.20
2018-03-17T20:40:31.671Z,99009.02
2018-03-17T20:43:01.011Z,99013.67
2018-03-17T20:45:28.414Z,99013.35
2018-03-17T20:47:55.801Z,99007.58
2018-03-17T20:50:24.004Z,99016.13
2018-03-17T20:52:53.491Z,99014.09
2018-03-17T20:55:20.906Z,99015.54
2018-03-17T20:57:48.720Z,99014.69
2018-03-17T21:00:16.437Z,99020.77
2018-03-17T21:02:43.849Z,99018.59
2018-03-17T21:05:11.223Z,99013.28
2018-03-17T21:07:38.631Z,99015.74
2018-03-17T21:10:06.029Z,99018.48
2018-03-17T21:12:33.413Z,99012.84
2018-03-17T21:15:00.797Z,99013.88
2018-03-17T21:17:28.204Z,99018.86
2018-03-17T21:19:55.569Z,99019.93
2018-03-17T21:22:22.956Z,99017.63
2018-03-17T21:24:50.340Z,99017.72
2018-03-17T21:27:17.736Z,99018.67
2018-03-17T21:29:45.169Z,99012.20
2018-03-17T21:32:12.562Z,99015.66
2018-03-17T21:34:39.941Z,99020.69
2018-03-17T21:37:07.341Z,99025.34
2018-03-17T21:39:34.760Z,99030.39
2018-03-17T21:42:02.203Z,99032.93
2018-03-17T21:44:29.625Z,99022.75
2018-03-17T21:46:57.052Z,99027.14
2018-03-17T21:49:24.491Z,99023.48
2018-03-17T21:51:51.921Z,99019.72
2018-03-17T21:54:19.427Z,99019.83
2018-03-17T21:56:46.819Z,99016.16
2018-03-17T21:59:14.206Z,99019.53
2018-03-17T22:01:41.607Z,99012.88
2018-03-17T22:04:09.018Z,99007.17
2018-03-17T22:06:36.447Z,99012.93
2018-03-17T22:09:03.804Z,99005.45
2018-03-17T22:11:31.217Z,99005.03
2018-03-17T22:13:58.619Z,99001.36
2018-03-17T22:16:26.053Z,99001.03
2018-03-17T22:18:53.435Z,98997.69
2018-03-17T22:21:20.852Z,99004.92
2018-03-17T22:23:49.188Z,99010.42
2018-03-17T22:26:16.744Z,99000.30
2018-03-17T22:28:44.203Z,98997.84
2018-03-17T22:31:11.587Z,99007.69
2018-03-17T22:33:38.992Z,99004.71
2018-03-17T22:36:06.453Z,99007.20
2018-03-17T22:38:33.956Z,99004.65
2018-03-17T22:41:01.357Z,99007.02
2018-03-17T22:43:28.767Z,99017.58
2018-03-17T22:45:57.055Z,99012.62
2018-03-17T22:48:24.744Z,99012.97
2018-03-17T22:50:52.151Z,99014.77
2018-03-17T22:53:24.885Z,99016.70
2018-03-17T22:55:52.270Z,99016.15
2018-03-17T22:58:19.673Z,99013.20
2018-03-17T23:00:47.071Z,99016.89
2018-03-17T23:03:14.533Z,99018.49
2018-03-17T23:05:41.924Z,99023.97
2018-03-17T23:08:09.930Z,99019.28
2018-03-17T23:10:37.315Z,99016.78
2018-03-17T23:13:04.765Z,99015.33
2018-03-17T23:15:32.165Z,99012.56
2018-03-17T23:17:59.569Z,99012.19
2018-03-17T23:20:26.953Z,99019.03
2018-03-17T23:22:54.356Z,99017.83
2018-03-17T23:25:21.734Z,99016.91
2018-03-17T23:27:49.637Z,99016.89
2018-03-17T23:30:17.047Z,99012.00
2018-03-17T23:32:44.471Z,99009.89
2018-03-17T23:35:11.884Z,99009.47
2018-03-17T23:37:39.296Z,99009.75
2018-03-17T23:40:06.743Z,99016.70
2018-03-17T23:42:34.126Z,99008.80
2018-03-17T23:45:01.511Z,99001.31
2018-03-17T23:47:28.958Z,99010.67
2018-03-17T23:49:56.481Z,99007.31
2018-03-17T23:52:23.865Z,99008.00
2018-03-17T23:54:51.244Z,99017.45
2018-03-17T23:57:23.655Z,99019.04
2018-03-17T23:59:55.066Z,99014.64
